Time;durP1;ratioP1;P1;durP2;ratioP2;P2;SDS_P1;SDS_P2;PMS_P1;PMS_P2;Temp;Humidity;BMP_temperature;BMP_pressure;BME280_temperature;BME280_humidity;BME280_pressure;Samples;Min_cycle;Max_cycle;Signal;HPM_P1;HPM_P2
2023/09/07 00:00:18;;;;;;;24.83;20.70;;;;;;;18.71;100.00;101807.91;5065824;28;20032;-71
2023/09/07 00:02:44;;;;;;;25.30;20.40;;;;;;;18.68;100.00;101805.78;5056661;28;20024;-70
2023/09/07 00:05:09;;;;;;;24.42;19.27;;;;;;;18.66;100.00;101806.09;5070998;28;20025;-70
2023/09/07 00:07:35;;;;;;;24.23;19.63;;;;;;;18.71;100.00;101808.72;5070757;28;20035;-70
2023/09/07 00:10:01;;;;;;;24.13;20.00;;;;;;;18.72;100.00;101801.13;5071001;28;20034;-69
2023/09/07 00:12:27;;;;;;;23.30;19.73;;;;;;;18.65;100.00;101798.88;5070979;28;20484;-70
2023/09/07 00:14:54;;;;;;;24.10;20.13;;;;;;;18.66;100.00;101796.91;5070873;28;20074;-70
2023/09/07 00:17:19;;;;;;;24.70;20.23;;;;;;;18.65;100.00;101792.44;5069476;28;20029;-71
2023/09/07 00:19:46;;;;;;;24.40;20.13;;;;;;;18.64;100.00;101799.19;5064860;28;20149;-70
2023/09/07 00:22:11;;;;;;;25.08;19.45;;;;;;;18.58;100.00;101792.97;5051970;28;20029;-69
2023/09/07 00:24:37;;;;;;;24.20;20.10;;;;;;;18.64;100.00;101791.63;5050648;28;20074;-70
2023/09/07 00:27:05;;;;;;;24.65;20.05;;;;;;;18.62;100.00;101801.53;5050997;28;20388;-70
2023/09/07 00:29:30;;;;;;;26.05;19.98;;;;;;;18.62;100.00;101793.13;5050414;28;20432;-69
2023/09/07 00:31:56;;;;;;;24.70;20.33;;;;;;;18.55;100.00;101785.25;5050859;28;20108;-69
2023/09/07 00:34:21;;;;;;;25.35;20.02;;;;;;;18.57;100.00;101791.31;5060618;28;20047;-69
2023/09/07 00:36:46;;;;;;;24.50;20.05;;;;;;;18.59;100.00;101791.81;5070746;28;20052;-69
2023/09/07 00:39:12;;;;;;;24.33;19.83;;;;;;;18.59;100.00;101786.22;5070747;28;20029;-69
2023/09/07 00:41:37;;;;;;;23.67;20.42;;;;;;;18.60;100.00;101782.25;5070639;28;20025;-69
2023/09/07 00:44:03;;;;;;;24.38;20.25;;;;;;;18.53;100.00;101782.78;5070768;28;20036;-69
2023/09/07 00:46:28;;;;;;;26.05;20.83;;;;;;;18.53;100.00;101785.56;5063611;28;20029;-69
2023/09/07 00:48:55;;;;;;;24.77;20.65;;;;;;;18.47;100.00;101781.34;5050318;28;20029;-69
2023/09/07 00:51:20;;;;;;;24.90;20.25;;;;;;;18.47;100.00;101775.72;5052388;28;20117;-71
2023/09/07 00:53:45;;;;;;;25.50;20.63;;;;;;;18.43;100.00;101780.34;5062305;28;20107;-70
2023/09/07 00:56:11;;;;;;;25.08;20.95;;;;;;;18.35;100.00;101776.47;5070518;28;20067;-69
2023/09/07 00:58:37;;;;;;;26.55;20.77;;;;;;;18.34;100.00;101786.00;5057697;28;20476;-69
2023/09/07 01:01:03;;;;;;;25.08;20.05;;;;;;;18.36;100.00;101777.28;5062851;28;20372;-68
2023/09/07 01:03:28;;;;;;;23.77;20.05;;;;;;;18.34;100.00;101779.56;5073202;28;20074;-68
2023/09/07 01:06:04;;;;;;;25.33;20.25;;;;;;;18.33;100.00;101786.34;5056930;28;20033;-69
2023/09/07 01:08:36;;;;;;;24.77;20.35;;;;;;;18.31;100.00;101778.28;5074077;28;20032;-69
2023/09/07 01:11:12;;;;;;;25.40;20.50;;;;;;;18.28;100.00;101773.34;5074156;28;20033;-70
2023/09/07 01:13:37;;;;;;;25.95;20.50;;;;;;;18.24;100.00;101783.59;5073873;28;20165;-69
2023/09/07 01:16:02;;;;;;;26.17;20.50;;;;;;;18.24;100.00;101778.00;5072411;28;20119;-69
2023/09/07 01:18:28;;;;;;;25.73;20.27;;;;;;;18.18;100.00;101776.53;5073912;28;20033;-69
2023/09/07 01:20:55;;;;;;;24.55;19.88;;;;;;;18.18;100.00;101782.94;5068669;28;20017;-70
2023/09/07 01:23:20;;;;;;;24.17;19.85;;;;;;;18.11;100.00;101785.47;5061070;28;20047;-70
2023/09/07 01:25:46;;;;;;;25.63;20.27;;;;;;;18.09;100.00;101779.38;5071163;28;20032;-70
2023/09/07 01:28:11;;;;;;;25.00;20.23;;;;;;;18.05;100.00;101779.22;5058706;28;20505;-70
2023/09/07 01:30:38;;;;;;;25.33;20.83;;;;;;;18.02;100.00;101788.28;5073720;28;20089;-70
2023/09/07 01:33:04;;;;;;;26.05;20.67;;;;;;;17.96;100.00;101775.63;5063065;28;20159;-70
2023/09/07 01:35:33;;;;;;;25.02;21.33;;;;;;;17.86;100.00;101773.16;5053687;28;20037;-70
2023/09/07 01:37:58;;;;;;;24.65;20.23;;;;;;;17.84;100.00;101770.69;5053750;28;20081;-70
2023/09/07 01:40:23;;;;;;;25.15;20.52;;;;;;;17.81;100.00;101776.94;5053540;28;20119;-71
2023/09/07 01:42:49;;;;;;;25.75;21.00;;;;;;;17.78;100.00;101769.22;5053808;28;20020;-71
2023/09/07 01:45:14;;;;;;;25.55;21.20;;;;;;;17.74;100.00;101768.25;5057555;28;20468;-69
2023/09/07 01:47:39;;;;;;;24.85;20.63;;;;;;;17.66;100.00;101766.28;5073570;28;20032;-70
2023/09/07 01:50:05;;;;;;;26.60;21.65;;;;;;;17.57;100.00;101766.31;5073378;28;20085;-69
2023/09/07 01:52:31;;;;;;;26.85;21.45;;;;;;;17.46;100.00;101772.25;5060572;28;20032;-70
2023/09/07 01:54:56;;;;;;;26.45;21.92;;;;;;;17.43;100.00;101767.28;5055364;28;20033;-69
2023/09/07 01:57:22;;;;;;;25.52;21.38;;;;;;;17.35;100.00;101768.13;5073001;28;20028;-70
2023/09/07 01:59:48;;;;;;;25.52;22.05;;;;;;;17.34;100.00;101760.88;5064666;28;20029;-70
2023/09/07 02:02:13;;;;;;;25.10;20.88;;;;;;;17.28;100.00;101765.00;5051580;28;20484;-69
2023/09/07 02:04:39;;;;;;;25.67;22.08;;;;;;;17.19;100.00;101765.03;5053087;28;20029;-69
2023/09/07 02:07:04;;;;;;;25.45;21.25;;;;;;;17.13;100.00;101764.38;5053302;28;20024;-69
2023/09/07 02:09:30;;;;;;;24.45;20.63;;;;;;;17.15;100.00;101766.84;5065022;28;20405;-69
2023/09/07 02:11:55;;;;;;;24.60;20.60;;;;;;;17.17;100.00;101769.28;5072672;28;20488;-71
2023/09/07 02:14:20;;;;;;;25.63;20.80;;;;;;;17.18;100.00;101770.94;5072880;28;20115;-70
2023/09/07 02:16:46;;;;;;;26.20;21.10;;;;;;;17.19;100.00;101769.78;5072803;28;20445;-69
2023/09/07 02:19:11;;;;;;;24.98;20.83;;;;;;;17.15;100.00;101764.84;5072858;28;20016;-69
2023/09/07 02:21:36;;;;;;;27.13;21.83;;;;;;;17.12;100.00;101765.53;5068287;28;20375;-69
2023/09/07 02:24:03;;;;;;;25.15;21.45;;;;;;;17.08;100.00;101763.72;5061756;28;20032;-69
2023/09/07 02:26:28;;;;;;;24.75;21.13;;;;;;;17.04;100.00;101766.34;5067521;28;20032;-69
2023/09/07 02:28:53;;;;;;;26.70;21.85;;;;;;;17.03;100.00;101758.25;5066375;28;20499;-68
2023/09/07 02:31:19;;;;;;;26.90;21.25;;;;;;;16.96;100.00;101759.59;5072246;28;20087;-69
2023/09/07 02:33:44;;;;;;;23.77;20.35;;;;;;;16.98;100.00;101762.03;5072259;28;20029;-68
2023/09/07 02:36:10;;;;;;;24.55;20.65;;;;;;;16.93;100.00;101754.66;5072288;28;20036;-69
2023/09/07 02:38:35;;;;;;;26.17;21.63;;;;;;;16.91;100.00;101759.69;5072351;28;20037;-68
2023/09/07 02:41:02;;;;;;;24.95;21.42;;;;;;;16.85;100.00;101761.03;5071098;28;20152;-69
2023/09/07 02:43:27;;;;;;;25.85;20.98;;;;;;;16.83;100.00;101763.31;5072247;28;20531;-69
2023/09/07 02:45:53;;;;;;;25.20;20.33;;;;;;;16.82;100.00;101770.03;5066128;28;20056;-70
2023/09/07 02:48:18;;;;;;;25.90;21.30;;;;;;;16.82;100.00;101759.72;5052292;28;20045;-69
2023/09/07 02:50:48;;;;;;;27.20;22.08;;;;;;;16.84;100.00;101760.22;5060707;28;20047;-69
2023/09/07 02:53:14;;;;;;;26.63;21.52;;;;;;;16.83;100.00;101768.91;5064158;28;20060;-69
2023/09/07 02:55:39;;;;;;;25.50;20.63;;;;;;;16.78;100.00;101755.09;5062075;28;20113;-69
2023/09/07 02:58:05;;;;;;;25.98;22.27;;;;;;;16.78;100.00;101757.91;5052170;28;20081;-68
2023/09/07 03:00:30;;;;;;;25.95;21.38;;;;;;;16.76;100.00;101761.03;5052207;28;20037;-69
2023/09/07 03:02:56;;;;;;;26.30;21.35;;;;;;;16.80;100.00;101762.00;5051975;28;20484;-69
2023/09/07 03:05:21;;;;;;;26.35;21.88;;;;;;;16.77;100.00;101762.66;5062203;28;20480;-69
2023/09/07 03:07:47;;;;;;;25.88;21.05;;;;;;;16.80;100.00;101759.22;5071890;28;20483;-69
2023/09/07 03:10:13;;;;;;;25.00;21.58;;;;;;;16.79;100.00;101756.75;5068379;28;20056;-69
2023/09/07 03:12:39;;;;;;;26.88;20.95;;;;;;;16.79;100.00;101759.53;5051826;28;20033;-69
2023/09/07 03:15:05;;;;;;;27.25;21.58;;;;;;;16.79;100.00;101751.16;5051750;28;20082;-69
2023/09/07 03:17:30;;;;;;;25.77;20.67;;;;;;;16.78;100.00;101758.69;5051734;28;20029;-69
2023/09/07 03:19:56;;;;;;;27.17;20.90;;;;;;;16.79;100.00;101759.53;5051774;28;20040;-69
2023/09/07 03:22:23;;;;;;;28.20;21.42;;;;;;;16.77;100.00;101757.06;5051373;28;20461;-69
2023/09/07 03:24:50;;;;;;;26.75;21.85;;;;;;;16.77;100.00;101757.06;5053404;28;20530;-69
2023/09/07 03:27:15;;;;;;;25.38;21.13;;;;;;;16.82;100.00;101758.88;5053296;28;20045;-69
2023/09/07 03:29:41;;;;;;;25.98;20.75;;;;;;;16.78;100.00;101758.69;5051540;28;20079;-70
2023/09/07 03:32:06;;;;;;;26.00;20.88;;;;;;;16.77;100.00;101751.47;5052270;28;20025;-70
2023/09/07 03:34:31;;;;;;;25.70;21.05;;;;;;;16.78;100.00;101755.91;5071422;28;20120;-69
2023/09/07 03:36:57;;;;;;;26.27;21.65;;;;;;;16.78;100.00;101758.69;5071410;28;20043;-70
2023/09/07 03:39:22;;;;;;;23.65;20.02;;;;;;;16.75;100.00;101758.53;5061076;28;20422;-68
2023/09/07 03:41:48;;;;;;;25.73;20.60;;;;;;;16.72;100.00;101762.00;5051467;28;20021;-70
2023/09/07 03:44:13;;;;;;;26.92;20.23;;;;;;;16.70;100.00;101773.47;5051486;28;20430;-70
2023/09/07 03:46:38;;;;;;;26.00;20.90;;;;;;;16.70;100.00;101770.69;5051213;28;20037;-71
2023/09/07 03:49:04;;;;;;;24.50;20.52;;;;;;;16.66;100.00;101772.50;5058491;28;20454;-71
2023/09/07 03:51:30;;;;;;;27.00;20.75;;;;;;;16.62;100.00;101775.13;5071194;28;20031;-71
2023/09/07 03:53:56;;;;;;;24.88;20.67;;;;;;;16.59;100.00;101781.34;5071112;28;20028;-71
2023/09/07 03:56:21;;;;;;;26.98;21.95;;;;;;;16.57;100.00;101777.25;5056028;28;20071;-69
2023/09/07 03:58:47;;;;;;;26.48;21.20;;;;;;;16.54;100.00;101775.91;5058193;28;20043;-72
2023/09/07 04:01:13;;;;;;;26.77;20.77;;;;;;;16.47;100.00;101770.81;5061451;28;20400;-69
2023/09/07 04:03:40;;;;;;;25.73;21.13;;;;;;;16.42;100.00;101776.53;5050926;28;20025;-69
2023/09/07 04:06:05;;;;;;;25.75;20.88;;;;;;;16.37;100.00;101771.09;5051162;28;20041;-70
2023/09/07 04:08:30;;;;;;;25.80;20.90;;;;;;;16.31;100.00;101773.22;5051020;28;20044;-70
2023/09/07 04:10:56;;;;;;;25.73;20.90;;;;;;;16.25;100.00;101766.13;5069806;28;20077;-69
2023/09/07 04:13:21;;;;;;;26.08;21.77;;;;;;;16.20;100.00;101771.84;5054699;28;20534;-70
2023/09/07 04:15:47;;;;;;;26.70;21.70;;;;;;;16.19;100.00;101765.47;5051041;28;20040;-69
2023/09/07 04:18:15;;;;;;;26.90;21.17;;;;;;;16.20;100.00;101763.47;5051027;28;20037;-71
2023/09/07 04:20:40;;;;;;;26.40;21.80;;;;;;;16.18;100.00;101760.19;5068603;28;20025;-71
2023/09/07 04:23:05;;;;;;;28.38;22.02;;;;;;;16.18;100.00;101760.19;5069580;28;20449;-71
2023/09/07 04:25:32;;;;;;;26.80;22.02;;;;;;;16.19;100.00;101757.09;5070388;28;20032;-69
2023/09/07 04:27:58;;;;;;;26.67;21.83;;;;;;;16.13;100.00;101750.00;5070886;28;20051;-70
2023/09/07 04:30:23;;;;;;;27.25;22.25;;;;;;;16.11;100.00;101760.66;5070786;28;20601;-70
2023/09/07 04:32:49;;;;;;;26.42;21.98;;;;;;;16.11;100.00;101763.44;5070605;28;20039;-70
2023/09/07 04:35:14;;;;;;;26.23;21.77;;;;;;;16.06;100.00;101769.97;5074924;28;20064;-70
2023/09/07 04:37:42;;;;;;;25.92;21.92;;;;;;;15.99;100.00;101755.66;5074885;28;20028;-70
2023/09/07 04:40:08;;;;;;;27.00;21.95;;;;;;;16.02;100.00;101771.78;5067265;28;20029;-70
2023/09/07 04:42:33;;;;;;;25.65;21.42;;;;;;;16.00;100.00;101765.69;5063479;28;20033;-70
2023/09/07 04:44:59;;;;;;;26.33;21.98;;;;;;;15.95;100.00;101770.59;5074756;28;20029;-71
2023/09/07 04:47:24;;;;;;;26.98;21.42;;;;;;;15.90;100.00;101774.34;5074663;28;20047;-70
2023/09/07 04:49:53;;;;;;;25.60;21.40;;;;;;;15.88;100.00;101765.47;5074513;28;20024;-70
2023/09/07 04:52:18;;;;;;;26.05;21.25;;;;;;;15.80;100.00;101769.84;5068035;28;20429;-70
2023/09/07 04:54:44;;;;;;;24.92;21.25;;;;;;;15.79;100.00;101778.50;5072106;28;20070;-70
2023/09/07 04:57:10;;;;;;;25.70;22.17;;;;;;;15.78;100.00;101768.47;5061292;28;20056;-70
2023/09/07 04:59:35;;;;;;;27.83;22.58;;;;;;;15.66;100.00;101757.91;5061743;28;20404;-71
2023/09/07 05:02:03;;;;;;;26.42;22.27;;;;;;;15.73;100.00;101775.88;5059731;28;20683;-70
2023/09/07 05:04:30;;;;;;;26.70;22.58;;;;;;;15.73;100.00;101778.66;5054360;28;20040;-70
2023/09/07 05:06:57;;;;;;;25.02;21.23;;;;;;;15.65;100.00;101771.06;5054570;28;20021;-70
2023/09/07 05:09:23;;;;;;;26.00;21.20;;;;;;;15.65;100.00;101779.44;5055783;28;20499;-70
2023/09/07 05:11:48;;;;;;;25.70;21.75;;;;;;;15.63;100.00;101769.72;5068443;28;20025;-69
2023/09/07 05:14:14;;;;;;;28.02;21.77;;;;;;;15.65;100.00;101784.16;5065888;28;20414;-70
2023/09/07 05:16:42;;;;;;;26.15;21.42;;;;;;;15.60;100.00;101777.59;5074013;28;20024;-70
2023/09/07 05:19:08;;;;;;;28.42;22.67;;;;;;;15.60;100.00;101788.75;5055501;28;20033;-69
2023/09/07 05:21:33;;;;;;;30.52;23.30;;;;;;;15.57;100.00;101785.78;5070100;28;20023;-69
2023/09/07 05:23:58;;;;;;;28.23;22.30;;;;;;;15.57;100.00;101791.34;5071504;28;20024;-69
2023/09/07 05:26:24;;;;;;;28.98;22.83;;;;;;;15.60;100.00;101793.47;5053896;28;20423;-67
2023/09/07 05:28:50;;;;;;;27.73;22.38;;;;;;;15.65;100.00;101789.75;5053810;28;20029;-68
2023/09/07 05:31:15;;;;;;;27.67;22.88;;;;;;;15.69;100.00;101791.56;5053629;28;20049;-69
2023/09/07 05:33:40;;;;;;;27.80;21.67;;;;;;;15.77;100.00;101794.75;5053918;28;20025;-69
2023/09/07 05:36:06;;;;;;;29.05;22.23;;;;;;;15.79;100.00;101798.88;5071210;28;20048;-69
2023/09/07 05:38:31;;;;;;;29.65;23.08;;;;;;;15.84;100.00;101801.56;5073700;28;20035;-69
2023/09/07 05:40:57;;;;;;;31.85;22.48;;;;;;;15.90;100.00;101791.09;5073688;28;20028;-70
2023/09/07 05:43:22;;;;;;;28.17;22.08;;;;;;;15.95;100.00;101802.13;5073668;28;20029;-69
2023/09/07 05:45:47;;;;;;;29.42;21.70;;;;;;;16.02;100.00;101801.66;5072353;28;20031;-69
2023/09/07 05:48:16;;;;;;;29.48;22.58;;;;;;;16.07;100.00;101804.31;5073629;28;20031;-70
2023/09/07 05:50:41;;;;;;;30.33;22.17;;;;;;;16.12;100.00;101804.16;5062548;28;20025;-70
2023/09/07 05:53:06;;;;;;;30.23;22.02;;;;;;;16.22;100.00;101809.47;5070602;28;20033;-71
2023/09/07 05:55:32;;;;;;;28.88;21.15;;;;;;;16.31;100.00;101806.72;5059576;28;20025;-70
2023/09/07 05:57:58;;;;;;;29.63;22.63;;;;;;;16.38;100.00;101803.47;5073306;28;20035;-71
2023/09/07 06:00:24;;;;;;;29.15;22.17;;;;;;;16.48;100.00;101813.53;5056043;28;20033;-69
2023/09/07 06:02:50;;;;;;;29.88;22.60;;;;;;;16.53;100.00;101808.63;5069899;28;20466;-69
2023/09/07 06:05:15;;;;;;;27.75;22.35;;;;;;;16.63;100.00;101815.84;5072984;28;20484;-70
2023/09/07 06:07:41;;;;;;;27.95;22.27;;;;;;;16.66;100.00;101818.00;5073692;28;20032;-69
2023/09/07 06:10:07;;;;;;;31.50;24.52;;;;;;;16.72;100.00;101810.31;5071019;28;20028;-68
2023/09/07 06:12:33;;;;;;;29.58;22.90;;;;;;;16.82;100.00;101825.94;5068609;28;20083;-69
2023/09/07 06:14:59;;;;;;;27.73;22.73;;;;;;;16.90;100.00;101824.31;5068738;28;20063;-69
2023/09/07 06:17:25;;;;;;;25.98;21.52;;;;;;;16.99;100.00;101834.41;5054382;28;20029;-66
2023/09/07 06:19:50;;;;;;;27.65;22.27;;;;;;;17.05;100.00;101814.66;5051383;28;20060;-66
2023/09/07 06:22:15;;;;;;;27.63;23.02;;;;;;;17.09;100.00;101824.06;5051755;28;20509;-67
2023/09/07 06:24:41;;;;;;;28.40;23.77;;;;;;;17.12;100.00;101817.81;5051910;28;20036;-67
2023/09/07 06:27:06;;;;;;;28.05;23.80;;;;;;;17.20;100.00;101830.97;5051419;28;20079;-67
2023/09/07 06:29:35;;;;;;;28.88;23.98;;;;;;;17.24;100.00;101831.16;5050518;28;20040;-66
2023/09/07 06:32:00;;;;;;;27.15;22.80;;;;;;;17.28;100.00;101830.16;5061316;28;20052;-66
2023/09/07 06:34:26;;;;;;;26.23;22.38;;;;;;;17.34;100.00;101830.81;5068972;28;20394;-66
2023/09/07 06:36:51;;;;;;;27.13;22.23;;;;;;;17.42;100.00;101834.75;5070652;28;20032;-66
2023/09/07 06:39:16;;;;;;;29.00;22.02;;;;;;;17.49;100.00;101835.09;5057081;28;20036;-67
2023/09/07 06:41:45;;;;;;;28.67;21.95;;;;;;;17.56;100.00;101837.38;5063575;28;20070;-68
2023/09/07 06:44:10;;;;;;;27.15;22.05;;;;;;;17.65;100.00;101840.19;5069374;28;20510;-66
2023/09/07 06:46:36;;;;;;;28.15;21.60;;;;;;;17.72;100.00;101846.09;5070972;28;20108;-66
2023/09/07 06:49:01;;;;;;;26.98;21.17;;;;;;;17.78;100.00;101844.78;5070776;28;20372;-67
2023/09/07 06:51:26;;;;;;;27.77;21.80;;;;;;;17.86;100.00;101849.53;5068288;28;20036;-67
2023/09/07 06:53:51;;;;;;;26.05;21.30;;;;;;;17.93;100.00;101847.06;5061864;28;20039;-67
2023/09/07 06:56:17;;;;;;;28.20;21.73;;;;;;;18.04;100.00;101841.97;5071054;28;20139;-67
2023/09/07 06:58:42;;;;;;;26.55;21.02;;;;;;;18.12;100.00;101840.31;5070341;28;20054;-66
2023/09/07 07:01:07;;;;;;;26.08;21.40;;;;;;;18.18;100.00;101835.34;5071811;28;20360;-67
2023/09/07 07:03:34;;;;;;;28.02;21.50;;;;;;;18.27;100.00;101838.09;5059916;28;20075;-66
2023/09/07 07:05:59;;;;;;;25.98;22.23;;;;;;;18.34;100.00;101841.19;5072020;28;20056;-66
2023/09/07 07:08:25;;;;;;;27.95;21.73;;;;;;;18.42;100.00;101845.94;5071255;28;20036;-67
2023/09/07 07:10:50;;;;;;;26.67;21.20;;;;;;;18.49;100.00;101842.63;5071721;28;20060;-67
2023/09/07 07:13:15;;;;;;;26.05;21.75;;;;;;;18.55;100.00;101847.72;5071568;28;20024;-65
2023/09/07 07:15:41;;;;;;;26.60;22.42;;;;;;;18.64;100.00;101847.69;5072054;28;20027;-63
2023/09/07 07:18:08;;;;;;;24.45;20.40;;;;;;;18.74;100.00;101840.88;5071576;28;20150;-63
2023/09/07 07:20:38;;;;;;;26.30;20.90;;;;;;;18.82;100.00;101848.41;5071288;28;20592;-63
2023/09/07 07:23:04;;;;;;;25.23;19.55;;;;;;;18.88;100.00;101846.22;5071391;28;20039;-66
2023/09/07 07:25:33;;;;;;;25.85;20.70;;;;;;;19.00;100.00;101851.13;5071518;28;20025;-64
2023/09/07 07:27:59;;;;;;;24.63;19.67;;;;;;;19.07;100.00;101844.97;5071518;28;20087;-65
2023/09/07 07:30:29;;;;;;;24.70;19.20;;;;;;;19.15;100.00;101844.09;5071067;28;20053;-65
2023/09/07 07:32:55;;;;;;;25.85;19.00;;;;;;;19.26;100.00;101852.94;5070956;28;20032;-64
2023/09/07 07:35:22;;;;;;;23.83;18.83;;;;;;;19.35;100.00;101853.69;5065230;28;20064;-64
2023/09/07 07:37:49;;;;;;;24.90;19.77;;;;;;;19.42;100.00;101847.53;5060890;28;20021;-65
2023/09/07 07:40:14;;;;;;;23.98;19.23;;;;;;;19.51;100.00;101850.25;5054214;28;20043;-65
2023/09/07 07:42:40;;;;;;;25.20;18.67;;;;;;;19.56;100.00;101838.81;5071229;28;20048;-66
2023/09/07 07:45:06;;;;;;;23.95;17.77;;;;;;;19.68;100.00;101843.69;5052978;28;20029;-64
2023/09/07 07:47:31;;;;;;;23.83;18.13;;;;;;;19.76;100.00;101851.19;5052689;28;20212;-64
2023/09/07 07:49:56;;;;;;;24.73;18.00;;;;;;;19.86;100.00;101847.16;5059486;28;20065;-64
2023/09/07 07:52:22;;;;;;;25.65;17.80;;;;;;;19.94;99.81;101852.69;5050841;28;20025;-64
2023/09/07 07:54:47;;;;;;;24.33;18.15;;;;;;;20.03;99.76;101846.97;5050697;28;20029;-63
2023/09/07 07:57:12;;;;;;;23.30;17.88;;;;;;;20.15;98.88;101842.56;5050654;28;20083;-64
2023/09/07 07:59:38;;;;;;;23.50;17.20;;;;;;;20.24;96.93;101843.28;5050603;28;20021;-64
2023/09/07 08:02:03;;;;;;;25.23;17.83;;;;;;;20.33;96.89;101834.75;5048296;28;20170;-64
2023/09/07 08:04:29;;;;;;;22.83;16.65;;;;;;;20.39;96.88;101838.97;5050693;28;20056;-64
2023/09/07 08:06:58;;;;;;;23.20;17.55;;;;;;;20.49;95.23;101840.50;5050541;28;20028;-63
2023/09/07 08:09:23;;;;;;;24.00;17.00;;;;;;;20.58;93.70;101847.66;5048084;28;20032;-63
2023/09/07 08:11:49;;;;;;;22.70;17.27;;;;;;;20.66;93.47;101843.09;5050374;28;20492;-64
2023/09/07 08:14:14;;;;;;;21.92;16.70;;;;;;;20.78;92.27;101842.28;5049854;28;20385;-64
2023/09/07 08:16:40;;;;;;;23.85;17.13;;;;;;;20.87;91.20;101845.00;5052207;28;20163;-63
2023/09/07 08:19:05;;;;;;;23.25;16.70;;;;;;;20.96;91.99;101839.22;5066117;28;20028;-63
2023/09/07 08:21:30;;;;;;;22.88;16.90;;;;;;;21.03;90.51;101840.28;5066669;28;20101;-63
2023/09/07 08:23:56;;;;;;;24.50;16.58;;;;;;;21.10;90.54;101830.41;5050537;28;20467;-62
2023/09/07 08:26:21;;;;;;;21.63;16.20;;;;;;;21.21;89.91;101827.94;5050941;28;20029;-63
2023/09/07 08:28:47;;;;;;;21.48;15.65;;;;;;;21.27;89.75;101818.88;5050708;28;20028;-62
2023/09/07 08:31:14;;;;;;;23.63;16.25;;;;;;;21.39;88.70;101820.00;5049126;28;20056;-65
2023/09/07 08:33:40;;;;;;;22.40;16.08;;;;;;;21.51;88.08;101817.16;5050349;28;20426;-62
2023/09/07 08:36:05;;;;;;;25.00;15.82;;;;;;;21.60;87.99;101808.56;5050590;28;20029;-63
2023/09/07 08:38:31;;;;;;;21.98;16.30;;;;;;;21.69;86.81;101808.44;5050592;28;20493;-62
2023/09/07 08:41:05;;;;;;;22.77;15.73;;;;;;;21.77;86.66;101807.44;5050743;28;20056;-64
2023/09/07 08:43:34;;;;;;;22.60;15.85;;;;;;;21.87;87.50;101804.09;5050598;28;20025;-62
2023/09/07 08:46:14;;;;;;;21.58;15.85;;;;;;;21.97;87.65;101797.94;5047865;28;20476;-63
2023/09/07 08:48:41;;;;;;;21.00;15.85;;;;;;;22.11;86.73;101803.13;5049695;28;20083;-63
2023/09/07 08:51:07;;;;;;;21.13;15.23;;;;;;;22.23;86.50;101809.88;5049603;28;20430;-64
2023/09/07 08:53:33;;;;;;;21.10;14.93;;;;;;;22.34;84.88;101802.47;5049292;28;20029;-63
2023/09/07 08:56:01;;;;;;;21.42;14.95;;;;;;;22.44;82.04;101799.13;5049523;28;20052;-63
2023/09/07 08:58:26;;;;;;;19.80;14.50;;;;;;;22.57;80.60;101801.84;5049942;28;20028;-63
2023/09/07 09:00:53;;;;;;;21.35;14.57;;;;;;;22.66;80.42;101798.88;5050439;28;20029;-63
2023/09/07 09:03:18;;;;;;;20.38;14.88;;;;;;;22.73;79.41;101799.81;5050656;28;20029;-64
2023/09/07 09:05:44;;;;;;;20.27;15.23;;;;;;;22.84;79.22;101799.25;5063495;28;20029;-63
2023/09/07 09:08:10;;;;;;;20.90;14.38;;;;;;;22.95;79.72;101803.16;5070343;28;20032;-63
2023/09/07 09:10:39;;;;;;;22.38;15.10;;;;;;;23.04;78.40;101795.28;5070437;28;20050;-63
2023/09/07 09:13:04;;;;;;;21.10;14.68;;;;;;;23.23;78.62;101798.53;5065819;28;20467;-63
2023/09/07 09:15:30;;;;;;;20.75;14.05;;;;;;;23.29;78.78;101799.88;5059370;28;20067;-64
2023/09/07 09:17:55;;;;;;;20.20;14.50;;;;;;;23.41;77.96;101796.06;5068839;28;20040;-63
2023/09/07 09:20:26;;;;;;;21.45;15.57;;;;;;;23.50;76.96;101802.31;5056163;28;20039;-63
2023/09/07 09:22:53;;;;;;;24.00;14.98;;;;;;;23.56;75.45;101809.31;5064567;28;20028;-64
2023/09/07 09:25:18;;;;;;;20.67;14.50;;;;;;;23.65;76.38;101801.41;5071352;28;20033;-64
2023/09/07 09:27:44;;;;;;;20.10;14.25;;;;;;;23.73;75.98;101796.69;5061323;28;20020;-64
2023/09/07 09:30:10;;;;;;;20.08;13.82;;;;;;;23.87;75.38;101792.53;5061207;28;20111;-63
2023/09/07 09:32:35;;;;;;;20.48;13.82;;;;;;;23.95;75.57;101792.28;5055919;28;20113;-63
2023/09/07 09:35:05;;;;;;;22.13;14.10;;;;;;;24.04;75.46;101786.41;5064377;28;20035;-63
2023/09/07 09:37:31;;;;;;;21.63;14.93;;;;;;;24.12;74.91;101782.50;5064274;28;20545;-63
2023/09/07 09:39:59;;;;;;;21.35;14.90;;;;;;;24.21;75.02;101787.91;5060815;28;20029;-63
2023/09/07 09:42:25;;;;;;;20.60;14.38;;;;;;;24.31;74.40;101780.78;5065134;28;20025;-63
2023/09/07 09:44:52;;;;;;;21.85;14.13;;;;;;;24.35;73.67;101789.34;5065092;28;20416;-64
2023/09/07 09:47:17;;;;;;;20.15;14.02;;;;;;;24.44;71.94;101781.41;5058730;28;20123;-64
2023/09/07 09:49:43;;;;;;;21.27;13.48;;;;;;;24.52;70.35;101780.31;5060920;28;20096;-64
2023/09/07 09:52:11;;;;;;;21.48;13.95;;;;;;;24.59;71.26;101776.78;5060768;28;20039;-65
2023/09/07 09:54:38;;;;;;;20.60;13.95;;;;;;;24.68;71.67;101779.38;5063600;28;20029;-65
2023/09/07 09:57:03;;;;;;;20.67;13.38;;;;;;;24.73;71.66;101784.69;5057942;28;20025;-66
2023/09/07 09:59:29;;;;;;;21.05;13.60;;;;;;;24.80;70.74;101776.31;5066158;28;20100;-64
2023/09/07 10:01:56;;;;;;;19.35;13.57;;;;;;;24.82;71.05;101779.56;5058644;28;20460;-65
2023/09/07 10:04:22;;;;;;;19.40;12.73;;;;;;;24.85;70.41;101772.34;5064956;28;20033;-65
2023/09/07 10:06:55;;;;;;;19.70;13.45;;;;;;;24.88;69.74;101769.56;5065454;28;20032;-66
2023/09/07 10:09:21;;;;;;;19.60;13.27;;;;;;;24.99;68.98;101763.22;5057196;28;20676;-65
2023/09/07 10:11:54;;;;;;;19.98;13.07;;;;;;;25.06;68.04;101766.97;5053128;28;20586;-65
2023/09/07 10:14:20;;;;;;;;;;;;;;;25.13;68.13;101765.44;5060469;28;20484;-65
2023/09/07 10:16:48;;;;;;;19.13;13.25;;;;;;;25.22;68.30;101769.59;5052796;28;19913;-65
2023/09/07 10:19:20;;;;;;;19.60;13.40;;;;;;;25.29;69.29;101766.03;5051351;28;20481;-64
2023/09/07 10:21:47;;;;;;;19.55;13.00;;;;;;;25.34;67.51;101759.22;5059433;28;20073;-66
2023/09/07 10:24:24;;;;;;;19.17;12.90;;;;;;;25.44;67.68;101772.72;5052256;28;20025;-65
2023/09/07 10:27:16;;;;;;;19.42;12.60;;;;;;;25.53;67.84;101773.22;5052846;28;20051;-65
2023/09/07 10:29:46;;;;;;;18.42;12.23;;;;;;;25.58;65.56;101776.91;5066375;28;20049;-65
2023/09/07 10:32:14;;;;;;;18.15;12.52;;;;;;;25.64;64.67;101773.34;5061836;28;20029;-66
2023/09/07 10:34:43;;;;;;;18.25;12.77;;;;;;;25.78;64.44;101755.66;5052292;28;20030;-66
2023/09/07 10:37:13;;;;;;;18.52;12.02;;;;;;;25.94;66.24;101758.25;5059909;28;20024;-66
2023/09/07 10:39:39;;;;;;;19.27;13.20;;;;;;;25.99;64.54;101754.25;5065950;28;20078;-65
2023/09/07 10:42:05;;;;;;;19.90;12.90;;;;;;;26.01;63.30;101757.50;5052432;28;20024;-66
2023/09/07 10:44:30;;;;;;;18.70;12.05;;;;;;;26.08;62.66;101753.91;5065088;28;20322;-65
2023/09/07 10:46:57;;;;;;;18.98;12.57;;;;;;;26.10;63.01;101751.53;5054645;28;20040;-65
2023/09/07 10:49:23;;;;;;;18.70;12.63;;;;;;;26.22;63.52;101748.38;5064754;28;20097;-64
2023/09/07 10:51:48;;;;;;;20.38;12.68;;;;;;;26.30;63.10;101754.94;5060362;28;20115;-64
2023/09/07 10:54:18;;;;;;;19.05;12.23;;;;;;;26.31;62.87;101746.03;5065186;28;20085;-65
2023/09/07 10:56:45;;;;;;;19.55;12.00;;;;;;;26.35;62.42;101742.41;5068638;28;20055;-64
2023/09/07 10:59:12;;;;;;;18.90;12.57;;;;;;;26.37;62.43;101737.97;5053686;28;20061;-65